Time;durP1;ratioP1;P1;durP2;ratioP2;P2;SDS_P1;SDS_P2;PMS_P1;PMS_P2;Temp;Humidity;BMP_temperature;BMP_pressure;BME280_temperature;BME280_humidity;BME280_pressure;Samples;Min_cycle;Max_cycle;Signal;HPM_P1;HPM_P2
2021/11/24 00:02:08;;;;;;;9.02;5.65;;;6.90;99.90;;;;;;5017039;28;20338;-92
2021/11/24 00:04:37;;;;;;;8.88;5.57;;;7.00;99.90;;;;;;5015485;28;20034;-91
2021/11/24 00:07:07;;;;;;;9.43;6.13;;;7.00;99.90;;;;;;5016141;28;20024;-92
2021/11/24 00:09:35;;;;;;;7.53;6.25;;;7.00;99.90;;;;;;5014861;28;20449;-91
2021/11/24 00:12:08;;;;;;;7.93;6.00;;;7.00;99.90;;;;;;5048378;28;20026;-92
2021/11/24 00:14:37;;;;;;;10.25;6.55;;;7.00;99.90;;;;;;5033337;28;20025;-91
2021/11/24 00:17:16;;;;;;;8.00;6.13;;;7.00;99.90;;;;;;5016832;28;20053;-92
2021/11/24 00:19:46;;;;;;;8.70;6.68;;;7.00;99.90;;;;;;5021985;28;20510;-92
2021/11/24 00:22:17;;;;;;;9.05;6.22;;;7.00;99.90;;;;;;5014709;28;20022;-92
2021/11/24 00:24:46;;;;;;;9.13;6.93;;;6.90;99.90;;;;;;5019211;28;20136;-92
2021/11/24 00:27:22;;;;;;;8.63;6.28;;;7.00;99.90;;;;;;5016213;28;20029;-92
2021/11/24 00:29:53;;;;;;;8.35;6.22;;;7.00;99.90;;;;;;5015345;28;20068;-91
2021/11/24 00:32:25;;;;;;;11.27;7.72;;;6.90;99.90;;;;;;5014499;28;20030;-93
2021/11/24 00:41:22;;;;;;;9.18;6.88;;;6.80;99.90;;;;;;5044261;28;20052;-91
2021/11/24 00:43:48;;;;;;;7.95;6.80;;;6.70;99.90;;;;;;5031450;28;20030;-92
2021/11/24 00:46:14;;;;;;;9.40;7.30;;;6.70;99.90;;;;;;5014860;28;20510;-92
2021/11/24 00:48:43;;;;;;;8.90;7.00;;;6.70;99.90;;;;;;4997249;28;20077;-89
2021/11/24 00:51:12;;;;;;;8.43;6.75;;;6.60;99.90;;;;;;5014498;28;20030;-90
2021/11/24 00:53:44;;;;;;;7.97;6.78;;;6.60;99.90;;;;;;5047664;28;20462;-92
2021/11/24 00:56:12;;;;;;;9.45;7.25;;;6.50;99.90;;;;;;5048050;28;20026;-93
2021/11/24 00:58:44;;;;;;;10.98;7.72;;;6.50;99.90;;;;;;5026888;28;20041;-92
2021/11/24 01:01:14;;;;;;;11.80;6.88;;;6.40;99.90;;;;;;5028160;28;20072;-94
2021/11/24 01:03:44;;;;;;;10.93;7.47;;;6.40;99.90;;;;;;5049332;28;20025;-93
2021/11/24 01:06:26;;;;;;;14.48;7.35;;;6.40;99.90;;;;;;5036110;28;20243;-93
2021/11/24 01:08:59;;;;;;;10.55;7.38;;;6.30;99.90;;;;;;5035777;28;20033;-93
2021/11/24 01:11:38;;;;;;;12.55;7.35;;;6.30;99.90;;;;;;5022371;28;20041;-92
2021/11/24 01:14:09;;;;;;;16.35;8.48;;;6.30;99.90;;;;;;5048498;28;20021;-93
2021/11/24 01:16:42;;;;;;;22.10;8.82;;;6.20;99.90;;;;;;5036644;28;20033;-93
2021/11/24 01:19:09;;;;;;;11.50;7.00;;;6.20;99.90;;;;;;5041433;28;20029;-94
2021/11/24 01:21:38;;;;;;;11.98;7.00;;;6.20;99.90;;;;;;5043989;28;20041;-93
2021/11/24 01:24:12;;;;;;;13.50;6.78;;;6.20;99.90;;;;;;5034314;28;20385;-93
2021/11/24 01:26:40;;;;;;;8.32;5.78;;;6.20;99.90;;;;;;5044004;28;20116;-93
2021/11/24 01:29:11;;;;;;;16.05;6.30;;;6.10;99.90;;;;;;5032044;28;20030;-92
2021/11/24 01:31:38;;;;;;;13.55;5.93;;;6.20;99.90;;;;;;5031270;28;20132;-93
2021/11/24 01:34:05;;;;;;;20.35;6.07;;;6.10;99.90;;;;;;5032767;28;20044;-93
2021/11/24 01:36:34;;;;;;;19.83;6.47;;;6.10;99.90;;;;;;5050977;28;20068;-93
2021/11/24 01:39:00;;;;;;;17.95;6.07;;;6.10;99.90;;;;;;5034714;28;20091;-93
2021/11/24 01:41:31;;;;;;;7.07;5.88;;;6.10;99.90;;;;;;5036140;28;20061;-92
2021/11/24 01:44:04;;;;;;;8.82;6.13;;;6.00;99.90;;;;;;5037174;28;20090;-92
2021/11/24 01:46:37;;;;;;;10.00;5.65;;;6.10;99.90;;;;;;5071928;28;20021;-93
2021/11/24 01:49:07;;;;;;;7.95;5.80;;;6.00;99.90;;;;;;5043334;28;20064;-93
2021/11/24 01:51:33;;;;;;;7.10;5.72;;;6.10;99.90;;;;;;5046844;28;20385;-93
2021/11/24 01:54:02;;;;;;;6.80;5.40;;;6.00;99.90;;;;;;5036065;28;20028;-93
2021/11/24 01:56:37;;;;;;;6.75;5.72;;;6.10;99.90;;;;;;5048294;28;20061;-93
2021/11/24 01:59:07;;;;;;;6.07;5.30;;;6.10;99.90;;;;;;5043778;28;20136;-93
2021/11/24 02:01:43;;;;;;;6.97;5.43;;;6.00;99.90;;;;;;5047763;28;20254;-93
2021/11/24 02:04:11;;;;;;;6.40;5.13;;;6.00;99.90;;;;;;5030839;28;20033;-92
2021/11/24 02:06:39;;;;;;;6.45;5.13;;;6.10;99.90;;;;;;5045889;28;20026;-92
2021/11/24 02:09:08;;;;;;;7.70;5.47;;;6.10;99.90;;;;;;5043285;28;20487;-92
2021/11/24 02:11:42;;;;;;;6.43;5.13;;;6.00;99.90;;;;;;5038269;28;20802;-91
2021/11/24 02:14:12;;;;;;;6.53;4.95;;;6.00;99.90;;;;;;5048563;28;20033;-92
2021/11/24 02:16:46;;;;;;;5.70;4.97;;;6.00;99.90;;;;;;5035217;28;20056;-91
2021/11/24 02:19:13;;;;;;;6.47;5.25;;;6.00;99.90;;;;;;5033121;28;20060;-91
2021/11/24 02:21:49;;;;;;;6.13;5.00;;;6.00;99.90;;;;;;5052657;28;20060;-92
2021/11/24 02:24:15;;;;;;;6.95;5.30;;;6.00;99.90;;;;;;5052466;28;20029;-91
2021/11/24 02:26:41;;;;;;;6.25;5.18;;;6.00;99.90;;;;;;5036259;28;20449;-92
2021/11/24 02:29:07;;;;;;;6.70;4.95;;;6.00;99.90;;;;;;5069091;28;20056;-91
2021/11/24 02:31:33;;;;;;;6.30;4.78;;;6.00;99.90;;;;;;5052803;28;20052;-93
2021/11/24 02:33:59;;;;;;;6.80;5.50;;;5.90;99.90;;;;;;5049831;28;20026;-92
2021/11/24 02:36:27;;;;;;;6.50;5.13;;;5.90;99.90;;;;;;5041447;28;20029;-93
2021/11/24 02:38:56;;;;;;;6.85;5.60;;;5.90;99.90;;;;;;5037005;28;20022;-91
2021/11/24 02:41:31;;;;;;;5.63;4.68;;;5.90;99.90;;;;;;5036227;28;20153;-92
2021/11/24 02:44:33;;;;;;;5.57;4.68;;;5.80;99.90;;;;;;5052815;28;20524;-90
2021/11/24 02:47:14;;;;;;;6.13;5.35;;;5.80;99.90;;;;;;5035560;28;20029;-89
2021/11/24 02:49:43;;;;;;;5.53;4.53;;;5.70;99.90;;;;;;5035900;28;20060;-91
2021/11/24 02:52:10;;;;;;;5.78;4.85;;;5.70;99.90;;;;;;5059952;28;20033;-93
2021/11/24 02:54:37;;;;;;;5.80;4.78;;;5.70;99.90;;;;;;5044512;28;20026;-91
2021/11/24 02:57:11;;;;;;;6.55;5.50;;;5.70;99.90;;;;;;5055708;28;20040;-91
2021/11/24 02:59:37;;;;;;;6.25;5.00;;;5.70;99.90;;;;;;5039692;28;20045;-93
2021/11/24 03:02:09;;;;;;;6.10;4.97;;;5.70;99.90;;;;;;5033482;28;20026;-92
2021/11/24 03:04:38;;;;;;;6.00;4.70;;;5.70;99.90;;;;;;5056530;28;20122;-91
2021/11/24 03:07:05;;;;;;;5.90;4.70;;;5.70;99.90;;;;;;5090831;28;20017;-92
2021/11/24 03:09:31;;;;;;;6.18;4.93;;;5.70;99.90;;;;;;5054586;28;20029;-91
2021/11/24 03:12:00;;;;;;;6.32;5.13;;;5.70;99.90;;;;;;5029877;28;20053;-91
2021/11/24 03:14:28;;;;;;;6.15;5.18;;;5.60;99.90;;;;;;5042323;28;20520;-92
2021/11/24 03:16:55;;;;;;;6.72;5.60;;;5.70;99.90;;;;;;5037941;28;20053;-92
2021/11/24 03:19:23;;;;;;;6.60;5.53;;;5.60;99.90;;;;;;5037870;28;20075;-92
2021/11/24 03:21:52;;;;;;;6.57;5.47;;;5.60;99.90;;;;;;5038373;28;20030;-92
2021/11/24 03:24:21;;;;;;;7.72;6.35;;;5.60;99.90;;;;;;5039161;28;20032;-92
2021/11/24 03:26:48;;;;;;;6.45;5.53;;;5.50;99.90;;;;;;5021560;28;20030;-93
2021/11/24 03:29:15;;;;;;;7.00;5.97;;;5.50;99.90;;;;;;5055274;28;20049;-95
2021/11/24 03:31:43;;;;;;;7.65;6.22;;;5.50;99.90;;;;;;5025554;28;20025;-94
2021/11/24 03:34:11;;;;;;;7.45;6.20;;;5.50;99.90;;;;;;5037604;28;20421;-94
2021/11/24 03:36:39;;;;;;;7.45;6.03;;;5.50;99.90;;;;;;5073648;28;20034;-94
2021/11/24 03:39:08;;;;;;;7.43;5.72;;;5.50;99.90;;;;;;5056739;28;20029;-92
2021/11/24 03:41:44;;;;;;;5.95;4.97;;;5.60;99.90;;;;;;5055456;28;20128;-92
2021/11/24 03:44:10;;;;;;;7.38;6.15;;;5.60;99.90;;;;;;5039307;28;20061;-92
2021/11/24 03:46:38;;;;;;;6.97;5.80;;;5.60;99.90;;;;;;5055986;28;20111;-92
2021/11/24 03:49:05;;;;;;;7.13;6.13;;;5.60;99.90;;;;;;5055478;28;20049;-93
2021/11/24 03:51:34;;;;;;;7.07;5.72;;;5.60;99.90;;;;;;5040137;28;20025;-91
2021/11/24 03:54:00;;;;;;;7.07;6.20;;;5.50;99.90;;;;;;5055624;28;20427;-93
2021/11/24 03:56:28;;;;;;;7.55;6.05;;;5.50;99.90;;;;;;5055350;28;20393;-92
2021/11/24 03:58:55;;;;;;;6.70;5.47;;;5.50;99.90;;;;;;5039942;28;20044;-92
2021/11/24 04:01:21;;;;;;;8.90;5.90;;;5.50;99.90;;;;;;5056423;28;20044;-90
2021/11/24 04:03:49;;;;;;;6.88;5.65;;;5.50;99.90;;;;;;5022068;28;20051;-91
2021/11/24 04:06:15;;;;;;;7.07;5.72;;;5.50;99.90;;;;;;5054393;28;20021;-91
2021/11/24 04:08:41;;;;;;;8.35;6.25;;;5.40;99.90;;;;;;5039124;28;20231;-91
2021/11/24 04:11:08;;;;;;;7.90;6.47;;;5.40;99.90;;;;;;5054972;28;20478;-91
2021/11/24 04:13:38;;;;;;;7.40;5.88;;;5.50;99.90;;;;;;5057259;28;20078;-93
2021/11/24 04:16:06;;;;;;;8.98;6.95;;;5.50;99.90;;;;;;5055878;28;20071;-92
2021/11/24 04:18:39;;;;;;;15.13;7.50;;;5.50;99.90;;;;;;5038861;28;20037;-92
2021/11/24 04:21:48;;;;;;;13.50;6.50;;;5.50;99.90;;;;;;5039023;28;20057;-91
2021/11/24 04:24:16;;;;;;;17.80;6.13;;;5.50;99.90;;;;;;5057153;28;20033;-93
2021/11/24 04:26:44;;;;;;;32.35;7.82;;;5.50;99.90;;;;;;5042757;28;20035;-92
2021/11/24 04:29:12;;;;;;;39.00;7.47;;;5.60;99.90;;;;;;5066799;28;20017;-92
2021/11/24 04:31:44;;;;;;;29.70;7.22;;;5.50;99.90;;;;;;5056744;28;20033;-90
2021/11/24 04:34:28;;;;;;;26.80;6.80;;;5.60;99.90;;;;;;5038963;28;20029;-92
2021/11/24 04:36:55;;;;;;;26.52;6.32;;;5.60;99.90;;;;;;5040775;28;20041;-92
2021/11/24 04:39:25;;;;;;;40.30;6.88;;;5.60;99.90;;;;;;5038846;28;20080;-92
2021/11/24 04:41:59;;;;;;;27.80;6.55;;;5.60;99.90;;;;;;5040253;28;20036;-93
2021/11/24 04:44:26;;;;;;;;;;;5.60;99.90;;;;;;5072994;28;20025;-92
2021/11/24 04:46:53;;;;;;;24.35;5.18;;;5.60;99.90;;;;;;5088688;28;20003;-93
2021/11/24 04:49:21;;;;;;;18.85;6.45;;;5.60;99.90;;;;;;5054305;28;20111;-92
2021/11/24 04:51:50;;;;;;;27.27;7.85;;;5.60;99.90;;;;;;5038684;28;20040;-92
2021/11/24 04:54:23;;;;;;;41.53;7.63;;;5.60;99.90;;;;;;5056035;28;20071;-93
2021/11/24 04:56:53;;;;;;;38.22;7.82;;;5.60;99.90;;;;;;5055728;28;20036;-93
2021/11/24 04:59:26;;;;;;;37.88;7.35;;;5.60;99.90;;;;;;5054719;28;20132;-93
2021/11/24 05:01:53;;;;;;;;;;;5.70;99.90;;;;;;5055354;28;20068;-93
2021/11/24 05:04:24;;;;;;;24.58;6.68;;;5.60;99.90;;;;;;5071259;28;19959;-92
2021/11/24 05:06:50;;;;;;;22.45;6.78;;;5.70;99.90;;;;;;5054744;28;20029;-92
2021/11/24 05:09:20;;;;;;;26.83;6.80;;;5.60;99.90;;;;;;5023175;28;20123;-93
2021/11/24 05:11:51;;;;;;;18.13;6.85;;;5.60;99.90;;;;;;5042344;28;20036;-92
2021/11/24 05:14:29;;;;;;;22.20;7.18;;;5.60;99.90;;;;;;5041660;28;20483;-92
2021/11/24 05:17:00;;;;;;;24.08;7.35;;;5.60;99.90;;;;;;5059535;28;20021;-92
2021/11/24 05:19:35;;;;;;;27.27;7.05;;;5.60;99.90;;;;;;5058392;28;20040;-92
2021/11/24 05:22:03;;;;;;;39.60;7.30;;;5.60;99.90;;;;;;5059297;28;20040;-92
2021/11/24 05:24:34;;;;;;;22.27;7.22;;;5.70;99.90;;;;;;5060278;28;20040;-92
2021/11/24 05:27:04;;;;;;;24.98;7.38;;;5.60;99.90;;;;;;5043074;28;20094;-92
2021/11/24 05:29:43;;;;;;;25.10;6.90;;;5.70;99.90;;;;;;5059882;28;20045;-93
2021/11/24 05:32:09;;;;;;;27.15;8.30;;;5.70;99.90;;;;;;5060259;28;20107;-91
2021/11/24 05:34:46;;;;;;;31.77;7.10;;;5.70;99.90;;;;;;5025233;28;20464;-93
2021/11/24 05:37:12;;;;;;;30.08;7.60;;;5.70;99.90;;;;;;5055967;28;20041;-93
2021/11/24 05:39:41;;;;;;;27.42;8.05;;;5.70;99.90;;;;;;5039154;28;20374;-92
2021/11/24 05:42:18;;;;;;;33.72;8.73;;;5.70;99.90;;;;;;5056135;28;20079;-92
2021/11/24 05:45:00;;;;;;;26.77;8.30;;;5.70;99.90;;;;;;5075572;28;20108;-93
2021/11/24 05:50:13;;;;;;;27.20;8.25;;;5.70;99.90;;;;;;5021857;28;20077;-92
2021/11/24 05:52:39;;;;;;;30.17;7.68;;;5.60;99.90;;;;;;5032100;28;20030;-93
2021/11/24 05:55:06;;;;;;;27.58;7.57;;;5.60;99.90;;;;;;5016457;28;20036;-93
2021/11/24 05:57:35;;;;;;;22.83;8.15;;;5.60;99.90;;;;;;5016352;28;20018;-92
2021/11/24 06:00:15;;;;;;;23.67;7.60;;;5.60;99.90;;;;;;5060739;28;20050;-92
2021/11/24 06:03:25;;;;;;;29.17;7.68;;;5.70;99.90;;;;;;5047415;28;20069;-93
2021/11/24 06:05:55;;;;;;;19.52;7.78;;;5.70;99.90;;;;;;5048690;28;20041;-94
2021/11/24 06:08:25;;;;;;;14.70;7.53;;;5.70;99.90;;;;;;5019419;28;20064;-93
2021/11/24 06:11:12;;;;;;;20.80;6.93;;;5.80;99.90;;;;;;5025396;28;20046;-92
2021/11/24 06:13:51;;;;;;;25.85;7.20;;;5.80;99.90;;;;;;5022573;28;20091;-93
2021/11/24 06:16:22;;;;;;;20.02;7.50;;;5.80;99.90;;;;;;5039731;28;20358;-93
2021/11/24 06:18:52;;;;;;;18.88;6.85;;;5.80;99.90;;;;;;5039085;28;20025;-93
2021/11/24 06:21:24;;;;;;;20.70;7.30;;;5.80;99.90;;;;;;5037243;28;20033;-93
2021/11/24 06:23:55;;;;;;;18.67;8.75;;;5.80;99.90;;;;;;5035905;28;20046;-92
2021/11/24 06:26:33;;;;;;;24.60;7.95;;;5.90;99.90;;;;;;5039584;28;20128;-94
2021/11/24 06:28:59;;;;;;;15.48;6.78;;;5.80;99.90;;;;;;5037152;28;20083;-92
2021/11/24 06:31:29;;;;;;;18.73;7.05;;;5.80;99.90;;;;;;5022147;28;20087;-92
2021/11/24 06:33:58;;;;;;;14.70;7.85;;;5.80;99.90;;;;;;5041537;28;20091;-92
2021/11/24 06:36:24;;;;;;;17.10;7.32;;;5.80;99.90;;;;;;5024671;28;20093;-92
2021/11/24 06:38:52;;;;;;;17.40;6.72;;;5.80;99.90;;;;;;5021489;28;20037;-92
2021/11/24 06:41:18;;;;;;;12.95;6.90;;;5.80;99.90;;;;;;5033825;28;20044;-93
2021/11/24 06:43:43;;;;;;;11.10;6.97;;;5.80;99.90;;;;;;5040143;28;20079;-92
2021/11/24 06:46:14;;;;;;;14.52;6.78;;;5.80;99.90;;;;;;5052759;28;20077;-92
2021/11/24 06:48:41;;;;;;;10.43;6.80;;;5.80;99.90;;;;;;5043925;28;20384;-92
2021/11/24 06:51:09;;;;;;;12.43;6.70;;;5.80;99.90;;;;;;5028766;28;20068;-93
2021/11/24 06:53:35;;;;;;;12.43;6.63;;;5.80;99.90;;;;;;5039917;28;20405;-93
2021/11/24 06:56:00;;;;;;;14.05;6.65;;;5.80;99.90;;;;;;5055222;28;20018;-94
2021/11/24 06:58:26;;;;;;;13.25;6.82;;;5.80;99.90;;;;;;5036360;28;20047;-92
2021/11/24 07:00:53;;;;;;;13.23;7.15;;;5.70;99.90;;;;;;5019020;28;20478;-95
2021/11/24 07:03:19;;;;;;;11.25;6.70;;;5.80;99.90;;;;;;5032426;28;20052;-93
2021/11/24 07:05:48;;;;;;;11.93;6.20;;;5.70;99.90;;;;;;5056362;28;20052;-94
2021/11/24 07:08:14;;;;;;;10.27;7.30;;;5.70;99.90;;;;;;5034540;28;20029;-93
2021/11/24 07:10:42;;;;;;;8.98;6.30;;;5.80;99.90;;;;;;5045365;28;20052;-94
2021/11/24 07:13:10;;;;;;;9.95;6.85;;;5.80;99.90;;;;;;5045200;28;20026;-92
2021/11/24 07:15:36;;;;;;;11.07;7.18;;;5.80;99.90;;;;;;5070155;28;20408;-92
2021/11/24 07:18:05;;;;;;;10.00;6.72;;;5.80;99.90;;;;;;5020432;28;20029;-92
2021/11/24 07:20:34;;;;;;;10.60;6.50;;;5.80;99.90;;;;;;5042863;28;20029;-93
2021/11/24 07:23:01;;;;;;;10.18;6.60;;;5.80;99.90;;;;;;5047941;28;20025;-93
2021/11/24 07:25:29;;;;;;;8.70;6.18;;;5.80;99.90;;;;;;5034944;28;20033;-93
2021/11/24 07:27:58;;;;;;;11.15;6.38;;;5.80;99.90;;;;;;5022868;28;20042;-93
2021/11/24 07:30:26;;;;;;;8.82;6.20;;;5.80;99.90;;;;;;5043338;28;20029;-94
2021/11/24 07:32:53;;;;;;;9.63;6.45;;;5.80;99.90;;;;;;5045271;28;20465;-91
2021/11/24 07:35:20;;;;;;;8.82;5.43;;;5.70;99.90;;;;;;5043731;28;20022;-93
2021/11/24 07:37:48;;;;;;;9.98;6.75;;;5.80;99.90;;;;;;5038665;28;20029;-93
2021/11/24 07:40:15;;;;;;;9.88;6.43;;;5.80;99.90;;;;;;5038945;28;20415;-93
2021/11/24 07:42:43;;;;;;;9.82;6.05;;;5.80;99.90;;;;;;5028412;28;20037;-94
2021/11/24 07:45:13;;;;;;;9.68;6.47;;;5.80;99.90;;;;;;5039602;28;20071;-93
2021/11/24 07:47:41;;;;;;;10.77;6.95;;;5.80;99.90;;;;;;5040788;28;20095;-92
2021/11/24 07:50:09;;;;;;;9.43;6.30;;;5.80;99.90;;;;;;5084842;28;20057;-93
2021/11/24 07:52:36;;;;;;;9.68;6.32;;;5.80;99.90;;;;;;5026125;28;20473;-93
2021/11/24 07:55:03;;;;;;;11.32;7.15;;;5.80;99.90;;;;;;5045208;28;20072;-93
2021/11/24 07:57:31;;;;;;;10.50;7.32;;;5.80;99.90;;;;;;5038636;28;20048;-94
2021/11/24 08:00:00;;;;;;;9.95;6.82;;;5.90;99.90;;;;;;5052431;28;20059;-94
2021/11/24 08:02:30;;;;;;;10.63;6.90;;;5.90;99.90;;;;;;5025288;28;20226;-94
2021/11/24 08:04:58;;;;;;;9.63;6.50;;;5.90;99.90;;;;;;5047774;28;20025;-93
2021/11/24 08:07:31;;;;;;;11.35;7.45;;;6.00;99.90;;;;;;5028030;28;20037;-93
2021/11/24 08:09:59;;;;;;;11.23;7.50;;;6.00;99.90;;;;;;5054296;28;20025;-94
2021/11/24 08:12:27;;;;;;;11.93;7.47;;;6.10;99.90;;;;;;5032558;28;20026;-93
2021/11/24 08:15:14;;;;;;;10.57;7.43;;;6.10;99.90;;;;;;5011840;28;20040;-93
2021/11/24 08:17:48;;;;;;;10.48;7.05;;;6.20;99.90;;;;;;5042227;28;20026;-92
2021/11/24 08:20:24;;;;;;;12.80;8.10;;;6.30;99.90;;;;;;5023612;28;20415;-92
2021/11/24 08:22:50;;;;;;;12.30;8.00;;;6.40;99.90;;;;;;5029668;28;20405;-92
2021/11/24 08:25:16;;;;;;;11.80;7.93;;;6.50;99.90;;;;;;5036217;28;20017;-93
2021/11/24 08:27:43;;;;;;;13.70;8.80;;;6.50;99.90;;;;;;5039250;28;20082;-94
2021/11/24 08:30:24;;;;;;;13.40;8.82;;;6.60;99.90;;;;;;5054780;28;20055;-92
2021/11/24 08:32:52;;;;;;;15.48;9.15;;;6.60;99.90;;;;;;5028770;28;20037;-92
2021/11/24 08:35:24;;;;;;;14.68;9.13;;;6.70;99.90;;;;;;5057763;28;20034;-92
2021/11/24 08:37:56;;;;;;;18.98;10.18;;;6.80;99.90;;;;;;5042927;28;20045;-92
2021/11/24 08:40:24;;;;;;;27.00;11.30;;;6.70;99.90;;;;;;5040807;28;20072;-91
2021/11/24 08:42:51;;;;;;;29.83;11.88;;;6.80;99.90;;;;;;5062402;28;20025;-92
2021/11/24 08:45:42;;;;;;;25.92;10.43;;;6.80;99.90;;;;;;5068762;28;20040;-92
2021/11/24 08:48:10;;;;;;;19.30;11.10;;;6.80;99.90;;;;;;5043916;28;20032;-92
2021/11/24 08:50:37;;;;;;;19.73;10.95;;;6.80;99.90;;;;;;5030878;28;20053;-93
2021/11/24 08:53:14;;;;;;;17.08;9.65;;;6.70;99.90;;;;;;5045574;28;20029;-90
2021/11/24 08:55:46;;;;;;;20.13;10.73;;;6.80;99.90;;;;;;5037414;28;20040;-93
2021/11/24 08:58:31;;;;;;;22.42;9.80;;;6.80;99.90;;;;;;5018404;28;20486;-93
2021/11/24 09:00:59;;;;;;;14.52;10.05;;;6.70;99.90;;;;;;5041663;28;20416;-93
2021/11/24 09:03:25;;;;;;;20.63;12.02;;;6.80;99.90;;;;;;5047782;28;20039;-92
2021/11/24 09:05:52;;;;;;;20.35;12.57;;;6.80;99.90;;;;;;5020897;28;20116;-94
2021/11/24 09:08:18;;;;;;;15.20;11.15;;;6.70;99.90;;;;;;5037203;28;20420;-92
2021/11/24 09:10:46;;;;;;;14.38;10.07;;;6.70;99.90;;;;;;5041879;28;20045;-93
2021/11/24 09:13:15;;;;;;;15.70;10.20;;;6.80;99.90;;;;;;5007007;28;20045;-93
2021/11/24 09:15:45;;;;;;;19.10;10.75;;;6.80;99.90;;;;;;5046222;28;20055;-94
2021/11/24 09:18:12;;;;;;;18.50;10.40;;;6.80;99.90;;;;;;5035701;28;20475;-92
2021/11/24 09:20:39;;;;;;;13.52;10.35;;;6.80;99.90;;;;;;5029875;28;20037;-91
2021/11/24 09:23:06;;;;;;;14.13;10.23;;;6.90;99.90;;;;;;5045885;28;20091;-92
2021/11/24 09:28:21;;;;;;;14.15;10.65;;;7.00;99.90;;;;;;5023285;28;20025;-92
2021/11/24 09:30:48;;;;;;;14.23;11.50;;;7.00;99.90;;;;;;5028130;28;20105;-92
2021/11/24 09:33:20;;;;;;;13.68;11.10;;;7.10;99.90;;;;;;5045234;28;20029;-93
2021/11/24 09:35:46;;;;;;;16.08;12.27;;;7.10;99.90;;;;;;5019591;28;20034;-92
2021/11/24 09:38:12;;;;;;;18.90;13.32;;;7.10;99.90;;;;;;5039824;28;20037;-93
2021/11/24 09:40:42;;;;;;;17.70;14.07;;;7.10;99.90;;;;;;5033310;28;20037;-93
2021/11/24 09:43:16;;;;;;;17.05;13.48;;;7.10;99.90;;;;;;5045652;28;20146;-93
2021/11/24 09:46:13;;;;;;;18.60;14.77;;;7.10;99.90;;;;;;5003594;28;20034;-93
2021/11/24 09:48:45;;;;;;;19.33;15.43;;;7.10;99.90;;;;;;5032992;28;20057;-92
2021/11/24 09:51:30;;;;;;;;;;;;;;;;;;;;;
2021/11/24 09:54:04;;;;;;;19.27;14.82;;;7.20;99.90;;;;;;5045522;28;20436;-94
2021/11/24 09:56:36;;;;;;;21.70;14.95;;;7.30;99.90;;;;;;5035294;28;20466;-92
2021/11/24 09:59:09;;;;;;;20.35;14.02;;;7.50;99.90;;;;;;5039533;28;20041;-93
2021/11/24 10:01:41;;;;;;;18.13;14.18;;;7.90;99.90;;;;;;5048221;28;20072;-94
2021/11/24 10:04:17;;;;;;;16.50;11.35;;;8.20;99.90;;;;;;5071351;28;20022;-94
2021/11/24 10:06:47;;;;;;;12.25;8.88;;;8.50;99.90;;;;;;5045184;28;20067;-93
2021/11/24 10:09:23;;;;;;;10.82;7.78;;;9.00;99.90;;;;;;5036723;28;20076;-93
2021/11/24 10:11:50;;;;;;;9.95;6.93;;;9.30;99.90;;;;;;5054114;28;20021;-93
2021/11/24 10:14:18;;;;;;;9.00;6.57;;;9.40;99.90;;;;;;5042997;28;20027;-93
2021/11/24 10:17:03;;;;;;;8.18;5.63;;;9.50;99.90;;;;;;5030887;28;20367;-93
2021/11/24 10:19:31;;;;;;;6.95;4.88;;;9.70;99.90;;;;;;5037403;28;20041;-93
2021/11/24 10:22:15;;;;;;;4.68;3.17;;;9.80;99.90;;;;;;5022610;28;20069;-95
2021/11/24 10:24:44;;;;;;;3.88;2.30;;;10.00;99.90;;;;;;5050943;28;20029;-92
2021/11/24 10:27:13;;;;;;;2.95;1.85;;;11.30;99.90;;;;;;5046622;28;20025;-93
2021/11/24 10:29:51;;;;;;;2.40;1.50;;;12.30;99.90;;;;;;5035518;28;20465;-92
2021/11/24 10:32:17;;;;;;;1.63;1.00;;;12.40;99.90;;;;;;5039067;28;20018;-94
2021/11/24 10:34:48;;;;;;;2.42;1.50;;;12.10;99.90;;;;;;5044276;28;20025;-93
2021/11/24 10:37:22;;;;;;;3.17;1.50;;;11.60;99.90;;;;;;5044191;28;20021;-92
2021/11/24 10:40:04;;;;;;;2.47;1.30;;;11.10;99.90;;;;;;5025206;28;20036;-93
2021/11/24 10:42:34;;;;;;;2.30;1.27;;;10.80;99.90;;;;;;5053459;28;20139;-93
2021/11/24 10:45:18;;;;;;;2.33;1.50;;;10.50;99.90;;;;;;5044506;28;20480;-93
2021/11/24 10:48:36;;;;;;;2.30;1.17;;;10.30;99.90;;;;;;5024749;28;20041;-93
2021/11/24 10:51:31;;;;;;;1.73;0.82;;;10.20;99.90;;;;;;5039167;28;20500;-94
2021/11/24 10:54:12;;;;;;;3.20;1.77;;;10.00;99.90;;;;;;5041547;28;20467;-93
2021/11/24 10:57:01;;;;;;;5.28;2.88;;;10.00;99.90;;;;;;5049146;28;20171;-94
2021/11/24 10:59:31;;;;;;;5.10;3.28;;;9.90;99.90;;;;;;5060036;28;20033;-93
2021/11/24 11:02:17;;;;;;;5.45;3.70;;;9.90;99.90;;;;;;5039195;28;20069;-94
2021/11/24 11:05:22;;;;;;;5.40;3.83;;;10.00;99.90;;;;;;5047486;28;20053;-92
2021/11/24 11:07:49;;;;;;;6.30;4.00;;;10.10;99.90;;;;;;5024106;28;20052;-92
2021/11/24 11:10:23;;;;;;;5.47;3.72;;;10.10;99.90;;;;;;5034309;28;20484;-92
2021/11/24 11:12:56;;;;;;;5.15;3.60;;;10.00;99.90;;;;;;5042782;28;20044;-93
2021/11/24 11:15:24;;;;;;;6.07;3.05;;;9.80;99.90;;;;;;5040157;28;20033;-92
2021/11/24 11:17:55;;;;;;;5.18;3.20;;;9.70;99.90;;;;;;5060336;28;20051;-93
2021/11/24 11:20:25;;;;;;;4.88;3.35;;;9.60;99.90;;;;;;5034799;28;20022;-92
2021/11/24 11:23:07;;;;;;;5.00;3.40;;;9.40;99.90;;;;;;5043256;28;20033;-92
2021/11/24 11:25:38;;;;;;;4.65;2.83;;;9.30;99.90;;;;;;5039740;28;20402;-92
2021/11/24 11:28:07;;;;;;;5.55;3.38;;;9.20;99.90;;;;;;5044097;28;20026;-92
2021/11/24 11:30:34;;;;;;;6.25;3.90;;;9.10;99.90;;;;;;5045531;28;20026;-93
2021/11/24 11:33:01;;;;;;;5.68;3.78;;;9.10;99.90;;;;;;5042861;28;20033;-92
2021/11/24 11:35:34;;;;;;;5.80;3.60;;;9.00;99.90;;;;;;5038520;28;20112;-92
2021/11/24 11:38:00;;;;;;;5.55;3.78;;;9.00;99.90;;;;;;5061895;28;20107;-92
2021/11/24 11:40:27;;;;;;;5.28;3.45;;;9.10;99.90;;;;;;5049071;28;20033;-93
2021/11/24 11:43:02;;;;;;;4.82;2.83;;;9.00;99.90;;;;;;5019930;28;20067;-92
2021/11/24 11:45:32;;;;;;;4.72;2.60;;;9.10;99.90;;;;;;5050502;28;20028;-91
2021/11/24 11:48:03;;;;;;;4.30;2.75;;;9.10;99.90;;;;;;5036272;28;20103;-92
2021/11/24 11:50:38;;;;;;;3.83;2.53;;;9.10;99.90;;;;;;5034564;28;20141;-92
2021/11/24 11:53:11;;;;;;;7.00;2.90;;;9.00;99.90;;;;;;5054491;28;20037;-91
2021/11/24 11:55:42;;;;;;;5.80;2.97;;;9.00;99.90;;;;;;5055097;28;20017;-92
2021/11/24 11:58:26;;;;;;;5.30;3.05;;;9.00;99.90;;;;;;5037614;28;20460;-91
2021/11/24 12:01:16;;;;;;;5.40;3.30;;;9.00;99.90;;;;;;5028054;28;20519;-91
2021/11/24 12:04:01;;;;;;;6.18;4.32;;;8.90;99.90;;;;;;5050529;28;20491;-92
2021/11/24 12:06:39;;;;;;;8.15;5.53;;;9.00;99.90;;;;;;5042907;28;20036;-92
2021/11/24 12:09:30;;;;;;;8.98;6.30;;;9.00;99.90;;;;;;5048800;28;20089;-92
2021/11/24 12:12:10;;;;;;;9.45;6.30;;;9.00;99.90;;;;;;5036787;28;20038;-91
2021/11/24 12:14:53;;;;;;;10.27;7.13;;;9.00;99.90;;;;;;5046780;28;20163;-94
2021/11/24 12:20:14;;;;;;;11.82;7.22;;;9.00;99.90;;;;;;5053558;28;20036;-91
2021/11/24 12:22:58;;;;;;;11.60;8.20;;;9.00;99.90;;;;;;5035838;28;20025;-92
2021/11/24 12:25:24;;;;;;;10.98;6.90;;;8.90;99.90;;;;;;5047795;28;20044;-91
2021/11/24 12:28:01;;;;;;;9.93;7.22;;;8.90;99.90;;;;;;5042953;28;20037;-90
2021/11/24 12:30:40;;;;;;;10.73;7.53;;;8.90;99.90;;;;;;5056998;28;20025;-91
2021/11/24 12:33:37;;;;;;;10.65;7.63;;;8.90;99.90;;;;;;5042880;28;20037;-90
2021/11/24 12:36:16;;;;;;;12.07;8.45;;;8.90;99.90;;;;;;5055226;28;20029;-93
2021/11/24 12:38:55;;;;;;;11.63;8.45;;;8.90;99.90;;;;;;5032968;28;20093;-91
2021/11/24 12:41:27;;;;;;;12.57;9.10;;;8.80;99.90;;;;;;5033562;28;20124;-92
2021/11/24 12:44:00;;;;;;;13.55;10.45;;;8.80;99.90;;;;;;5033997;28;20032;-92
2021/11/24 12:46:31;;;;;;;15.60;10.50;;;8.80;99.90;;;;;;5054486;28;20468;-90
2021/11/24 12:49:07;;;;;;;19.13;13.18;;;8.80;99.90;;;;;;5050726;28;20033;-91
2021/11/24 12:51:48;;;;;;;18.35;12.10;;;8.80;99.90;;;;;;5070013;28;20033;-90
2021/11/24 12:54:27;;;;;;;16.65;10.85;;;8.80;99.90;;;;;;5048461;28;20013;-91
2021/11/24 12:56:59;;;;;;;17.10;12.30;;;8.80;99.90;;;;;;5044522;28;20032;-90
2021/11/24 12:59:31;;;;;;;16.98;12.27;;;8.90;99.90;;;;;;5034704;28;20095;-90
2021/11/24 13:02:00;;;;;;;18.52;12.48;;;8.90;99.90;;;;;;5038931;28;20024;-90
2021/11/24 13:04:55;;;;;;;16.08;10.93;;;8.90;99.90;;;;;;5032529;28;20858;-90
2021/11/24 13:07:24;;;;;;;18.55;11.43;;;8.90;99.90;;;;;;5027362;28;20053;-90
2021/11/24 13:09:53;;;;;;;18.85;12.00;;;8.90;99.90;;;;;;5048431;28;20033;-91
2021/11/24 13:12:21;;;;;;;19.58;11.98;;;8.80;99.90;;;;;;5034583;28;20017;-91
2021/11/24 13:14:52;;;;;;;20.65;13.15;;;8.80;99.90;;;;;;5032283;28;20128;-91
2021/11/24 13:17:28;;;;;;;22.02;13.32;;;8.80;99.90;;;;;;5030575;28;20063;-92
2021/11/24 13:20:04;;;;;;;25.20;16.00;;;8.80;99.90;;;;;;5032896;28;20025;-91
2021/11/24 13:22:38;;;;;;;24.48;15.25;;;8.70;99.90;;;;;;5038947;28;20413;-92
2021/11/24 13:25:11;;;;;;;24.65;14.88;;;8.70;99.90;;;;;;5047215;28;20022;-89
2021/11/24 13:27:49;;;;;;;21.77;14.90;;;8.60;99.90;;;;;;5056211;28;20160;-91
2021/11/24 13:30:22;;;;;;;20.27;13.25;;;8.60;99.90;;;;;;5020903;28;20369;-91